Aeroporto :
LOGIN :

Iscrizione | Disclaimer

   EN    FR    IT 

 










Sommario :    VFR   VFR Marginale   IFR   IFR Intensivo   IFR Molto Intensivo
Visibilità : 
Base nubi : 
>= 8 km
>= 3000ft
5 / 8 km
1000 / 3000 ft
1500m / 5 km
500 / 1000 ft
800 / 1500m
200 / 500 ft
< 800m
< 200 ft
Simboli :   Temporali  Nebbia  Neve Forte  Precipitazioni Forti  Vento > 20 kt
SIGMETs :   Varie  Temporali  Ghiacco  Turbolenza  Onda orograficha  Ceneri Vulcaniche







- Altitudine del aeroporto : 1959 ft
- Codice IATA : HOQ


EDQM - Hof Plauen

ULTIMO METAR :
  • 181620Z 09012KT CAVOK 16/M00 Q1026

METARs OBSOLETI :
  • 181550Z 09012KT CAVOK 16/00 Q1026
  • 181520Z 12015KT CAVOK 17/01 Q1026
  • 181450Z 09014KT CAVOK 17/M01 Q1026
  • 181420Z 10013KT 060V130 CAVOK 17/M00 Q1026
  • 181350Z 10016KT CAVOK 16/M00 Q1026
  • 181320Z 09012G23KT 040V130 CAVOK 16/01 Q1026

TAF TAF EDQM
Valido dal 18 a 15 ore il 19 a 00 ore UTC


181400Z 1815/1824 09012KT CAVOK
TEMPO 1815/1816 09015G25KT
BECMG 1817/1819 08005KT
Nessun NOTAM noto per questo aeroporto.



MetMap, La meteo Aeronautica in un colpo d'occhio ! - Copyright ORBIFLY Dicembre 2007 - Disclaimer

ORBIFLY MET'MAP TEAM :

Programmazione e sviluppo : Alexandra Zaïnal
Concezione e sviluppo : Baudouin d'Aumeries
Co-Programmazione e sviluppo : Marc-Olivier Méhu
Supporto tecnico e logistico : Manuel Goepfert
Aiuto per la traduzione : Arnaldo La Scala

Contatto : metmap@orbifly.com




FONTI E CREDITI :

   NOAA